sensor_id;sensor_type;location;lat;lon;timestamp;pressure;altitude;pressure_sealevel;temperature;humidity
57574;BME280;68988;49.000;21.242;2023-05-01T00:02:17;98993.13;;;20.84;38.23
57574;BME280;68988;49.000;21.242;2023-05-01T00:04:43;98996.59;;;20.84;38.28
57574;BME280;68988;49.000;21.242;2023-05-01T00:07:08;98997.97;;;20.87;38.26
57574;BME280;68988;49.000;21.242;2023-05-01T00:09:33;98994.97;;;20.83;38.44
57574;BME280;68988;49.000;21.242;2023-05-01T00:11:59;98990.22;;;20.85;38.14
57574;BME280;68988;49.000;21.242;2023-05-01T00:14:24;98993.91;;;20.84;38.13
57574;BME280;68988;49.000;21.242;2023-05-01T00:16:50;98994.72;;;20.85;38.20
57574;BME280;68988;49.000;21.242;2023-05-01T00:19:15;98994.72;;;20.85;38.30
57574;BME280;68988;49.000;21.242;2023-05-01T00:21:44;98994.97;;;20.83;38.11
57574;BME280;68988;49.000;21.242;2023-05-01T00:24:10;98994.16;;;20.83;38.35
57574;BME280;68988;49.000;21.242;2023-05-01T00:26:35;99000.88;;;20.85;38.22
57574;BME280;68988;49.000;21.242;2023-05-01T00:29:00;99001.34;;;20.82;38.33
57574;BME280;68988;49.000;21.242;2023-05-01T00:31:26;98996.03;;;20.82;38.37
57574;BME280;68988;49.000;21.242;2023-05-01T00:33:51;99000.53;;;20.82;38.49
57574;BME280;68988;49.000;21.242;2023-05-01T00:36:17;99005.06;;;20.81;38.41
57574;BME280;68988;49.000;21.242;2023-05-01T00:38:42;99002.16;;;20.83;38.11
57574;BME280;68988;49.000;21.242;2023-05-01T00:41:08;98999.81;;;20.86;38.17
57574;BME280;68988;49.000;21.242;2023-05-01T00:43:33;99002.94;;;20.83;38.15
57574;BME280;68988;49.000;21.242;2023-05-01T00:45:59;98998.69;;;20.82;38.37
57574;BME280;68988;49.000;21.242;2023-05-01T00:48:24;98998.69;;;20.82;38.18
57574;BME280;68988;49.000;21.242;2023-05-01T00:50:51;99001.69;;;20.86;38.36
57574;BME280;68988;49.000;21.242;2023-05-01T00:53:17;99015.72;;;20.81;38.17
57574;BME280;68988;49.000;21.242;2023-05-01T00:55:43;99011.78;;;20.84;38.22
57574;BME280;68988;49.000;21.242;2023-05-01T00:58:09;99014.91;;;20.81;38.30
57574;BME280;68988;49.000;21.242;2023-05-01T01:00:36;99010.38;;;20.81;38.20
57574;BME280;68988;49.000;21.242;2023-05-01T01:03:02;99022.09;;;20.80;38.25
57574;BME280;68988;49.000;21.242;2023-05-01T01:05:29;99018.38;;;20.81;38.18
57574;BME280;68988;49.000;21.242;2023-05-01T01:10:36;99017.44;;;20.87;37.98
57574;BME280;68988;49.000;21.242;2023-05-01T01:15:47;99022.69;;;20.82;38.37
57574;BME280;68988;49.000;21.242;2023-05-01T01:18:35;99018.94;;;20.83;38.06
57574;BME280;68988;49.000;21.242;2023-05-01T01:21:11;99025.81;;;20.79;38.25
57574;BME280;68988;49.000;21.242;2023-05-01T01:31:59;99023.47;;;20.83;38.24
57574;BME280;68988;49.000;21.242;2023-05-01T01:37:29;99028.72;;;20.78;38.24
57574;BME280;68988;49.000;21.242;2023-05-01T01:40:00;99032.50;;;20.82;38.33
57574;BME280;68988;49.000;21.242;2023-05-01T01:42:33;99036.03;;;20.70;38.47
57574;BME280;68988;49.000;21.242;2023-05-01T01:45:04;99037.97;;;20.75;38.45
57574;BME280;68988;49.000;21.242;2023-05-01T01:47:35;99027.56;;;20.73;38.35
57574;BME280;68988;49.000;21.242;2023-05-01T01:50:03;99036.34;;;20.74;38.45
57574;BME280;68988;49.000;21.242;2023-05-01T01:52:31;99030.56;;;20.77;38.26
57574;BME280;68988;49.000;21.242;2023-05-01T01:55:01;99029.03;;;20.81;38.35
57574;BME280;68988;49.000;21.242;2023-05-01T01:57:30;99034.69;;;20.85;38.23
57574;BME280;68988;49.000;21.242;2023-05-01T01:59:57;99031.00;;;20.86;38.15
57574;BME280;68988;49.000;21.242;2023-05-01T02:02:23;99043.06;;;20.88;38.13
57574;BME280;68988;49.000;21.242;2023-05-01T02:04:50;99035.63;;;20.90;38.01
57574;BME280;68988;49.000;21.242;2023-05-01T02:07:16;99034.00;;;20.89;38.16
57574;BME280;68988;49.000;21.242;2023-05-01T02:09:44;99034.00;;;20.89;38.08
57574;BME280;68988;49.000;21.242;2023-05-01T02:12:11;99032.38;;;20.88;37.95
57574;BME280;68988;49.000;21.242;2023-05-01T02:14:37;99034.00;;;20.89;38.08
57574;BME280;68988;49.000;21.242;2023-05-01T02:17:04;99031.91;;;20.91;37.85
57574;BME280;68988;49.000;21.242;2023-05-01T02:19:31;99026.59;;;20.91;37.79
57574;BME280;68988;49.000;21.242;2023-05-01T02:21:58;99027.63;;;20.90;37.83
57574;BME280;68988;49.000;21.242;2023-05-01T02:24:26;99030.06;;;20.92;38.00
57574;BME280;68988;49.000;21.242;2023-05-01T02:26:55;99017.53;;;20.92;37.90
57574;BME280;68988;49.000;21.242;2023-05-01T02:29:24;99027.38;;;20.92;37.92
57574;BME280;68988;49.000;21.242;2023-05-01T02:31:50;99027.38;;;20.92;37.89
57574;BME280;68988;49.000;21.242;2023-05-01T02:34:15;99022.06;;;20.92;37.88
57574;BME280;68988;49.000;21.242;2023-05-01T02:36:41;99018.34;;;20.93;37.93
57574;BME280;68988;49.000;21.242;2023-05-01T02:39:06;99013.81;;;20.93;37.76
57574;BME280;68988;49.000;21.242;2023-05-01T02:41:34;99014.84;;;20.92;37.96
57574;BME280;68988;49.000;21.242;2023-05-01T02:44:01;99016.25;;;20.95;37.87
57574;BME280;68988;49.000;21.242;2023-05-01T02:46:30;99014.63;;;20.94;37.72
57574;BME280;68988;49.000;21.242;2023-05-01T02:48:59;99022.38;;;20.96;37.89
57574;BME280;68988;49.000;21.242;2023-05-01T02:51:25;99021.34;;;20.97;37.76
57574;BME280;68988;49.000;21.242;2023-05-01T02:53:52;99023.22;;;20.96;37.74
57574;BME280;68988;49.000;21.242;2023-05-01T02:56:18;99017.28;;;20.94;38.03
57574;BME280;68988;49.000;21.242;2023-05-01T02:58:44;99017.88;;;20.96;37.82
57574;BME280;68988;49.000;21.242;2023-05-01T03:01:09;99021.34;;;20.97;37.78
57574;BME280;68988;49.000;21.242;2023-05-01T03:03:35;99024.00;;;20.97;37.88
57574;BME280;68988;49.000;21.242;2023-05-01T03:06:01;99024.00;;;20.97;37.87
57574;BME280;68988;49.000;21.242;2023-05-01T03:08:27;99021.91;;;20.99;37.86
57574;BME280;68988;49.000;21.242;2023-05-01T03:10:53;99020.31;;;20.98;37.97
57574;BME280;68988;49.000;21.242;2023-05-01T03:13:18;99023.53;;;21.00;37.86
57574;BME280;68988;49.000;21.242;2023-05-01T03:15:43;99027.00;;;21.00;37.86
57574;BME280;68988;49.000;21.242;2023-05-01T03:18:09;99022.72;;;20.99;37.67
57574;BME280;68988;49.000;21.242;2023-05-01T03:20:34;99030.50;;;21.01;37.87
57574;BME280;68988;49.000;21.242;2023-05-01T03:23:00;99020.06;;;20.99;37.85
57574;BME280;68988;49.000;21.242;2023-05-01T03:25:25;99010.34;;;20.93;37.89
57574;BME280;68988;49.000;21.242;2023-05-01T03:27:51;99024.69;;;21.04;37.80
57574;BME280;68988;49.000;21.242;2023-05-01T03:30:17;99016.09;;;21.02;37.98
57574;BME280;68988;49.000;21.242;2023-05-01T03:32:42;99021.44;;;21.02;37.85
57574;BME280;68988;49.000;21.242;2023-05-01T03:35:08;99024.09;;;21.02;37.92
57574;BME280;68988;49.000;21.242;2023-05-01T03:37:34;99029.19;;;21.03;37.90
57574;BME280;68988;49.000;21.242;2023-05-01T03:39:59;99017.16;;;21.01;37.81
57574;BME280;68988;49.000;21.242;2023-05-01T03:42:25;99022.59;;;21.06;37.77
57574;BME280;68988;49.000;21.242;2023-05-01T03:44:50;99020.47;;;21.08;37.48
57574;BME280;68988;49.000;21.242;2023-05-01T03:47:17;99023.69;;;21.10;37.78
57574;BME280;68988;49.000;21.242;2023-05-01T03:49:42;99018.13;;;21.11;37.87
57574;BME280;68988;49.000;21.242;2023-05-01T03:52:08;99019.53;;;21.14;37.71
57574;BME280;68988;49.000;21.242;2023-05-01T03:54:35;99013.94;;;21.16;37.75
57574;BME280;68988;49.000;21.242;2023-05-01T03:57:01;99013.47;;;21.19;37.78
57574;BME280;68988;49.000;21.242;2023-05-01T03:59:26;99018.88;;;21.24;37.69
57574;BME280;68988;49.000;21.242;2023-05-01T04:01:52;99014.94;;;21.26;37.61
57574;BME280;68988;49.000;21.242;2023-05-01T04:04:17;99012.84;;;21.28;37.63
57574;BME280;68988;49.000;21.242;2023-05-01T04:06:43;99020.13;;;21.33;37.70
57574;BME280;68988;49.000;21.242;2023-05-01T04:09:08;99019.88;;;21.35;37.38
57574;BME280;68988;49.000;21.242;2023-05-01T04:11:34;99022.06;;;21.38;37.40
57574;BME280;68988;49.000;21.242;2023-05-01T04:13:59;99022.66;;;21.40;37.64
57574;BME280;68988;49.000;21.242;2023-05-01T04:16:25;99022.16;;;21.43;37.46
57574;BME280;68988;49.000;21.242;2023-05-01T04:18:50;99028.63;;;21.47;37.50
57574;BME280;68988;49.000;21.242;2023-05-01T04:21:17;99021.56;;;21.53;37.37
57574;BME280;68988;49.000;21.242;2023-05-01T04:23:43;99026.16;;;21.57;37.25
57574;BME280;68988;49.000;21.242;2023-05-01T04:26:08;99023.09;;;21.66;37.32
57574;BME280;68988;49.000;21.242;2023-05-01T04:28:34;99023.31;;;21.64;37.13
57574;BME280;68988;49.000;21.242;2023-05-01T04:31:00;99035.56;;;21.77;37.12
57574;BME280;68988;49.000;21.242;2023-05-01T04:33:25;99030.59;;;21.86;36.99
57574;BME280;68988;49.000;21.242;2023-05-01T04:35:52;99025.59;;;22.06;36.59
57574;BME280;68988;49.000;21.242;2023-05-01T04:38:18;99030.00;;;22.34;36.24
57574;BME280;68988;49.000;21.242;2023-05-01T04:40:44;99026.34;;;22.41;36.07
57574;BME280;68988;49.000;21.242;2023-05-01T04:43:09;99020.56;;;22.49;35.94
57574;BME280;68988;49.000;21.242;2023-05-01T04:45:37;99017.34;;;22.47;35.89
57574;BME280;68988;49.000;21.242;2023-05-01T04:48:02;99019.03;;;22.53;35.86
57574;BME280;68988;49.000;21.242;2023-05-01T04:50:28;99022.44;;;22.48;36.03
57574;BME280;68988;49.000;21.242;2023-05-01T04:52:53;99027.00;;;22.48;36.27
57574;BME280;68988;49.000;21.242;2023-05-01T04:55:18;99018.66;;;22.44;36.08
57574;BME280;68988;49.000;21.242;2023-05-01T04:57:44;99024.47;;;22.41;36.48
57574;BME280;68988;49.000;21.242;2023-05-01T05:00:10;99027.50;;;22.45;36.47
57574;BME280;68988;49.000;21.242;2023-05-01T05:02:36;99025.38;;;22.47;36.42
57574;BME280;68988;49.000;21.242;2023-05-01T05:05:01;99019.53;;;22.50;36.42
57574;BME280;68988;49.000;21.242;2023-05-01T05:07:27;99021.16;;;22.51;36.26
57574;BME280;68988;49.000;21.242;2023-05-01T05:09:52;99021.22;;;22.56;36.41
57574;BME280;68988;49.000;21.242;2023-05-01T05:12:17;99012.38;;;22.56;36.28
57574;BME280;68988;49.000;21.242;2023-05-01T05:14:43;99013.25;;;22.61;36.25
57574;BME280;68988;49.000;21.242;2023-05-01T05:17:08;99016.50;;;22.63;36.08
57574;BME280;68988;49.000;21.242;2023-05-01T05:19:34;99017.28;;;22.64;36.26
57574;BME280;68988;49.000;21.242;2023-05-01T05:22:02;99019.78;;;22.70;36.29
57574;BME280;68988;49.000;21.242;2023-05-01T05:24:28;99013.13;;;22.73;36.16
57574;BME280;68988;49.000;21.242;2023-05-01T05:26:53;99015.53;;;22.75;36.23
57574;BME280;68988;49.000;21.242;2023-05-01T05:29:19;99018.28;;;22.80;36.09
57574;BME280;68988;49.000;21.242;2023-05-01T05:31:45;99011.56;;;22.77;36.16
57574;BME280;68988;49.000;21.242;2023-05-01T05:34:11;99016.97;;;22.82;36.20
57574;BME280;68988;49.000;21.242;2023-05-01T05:36:36;99017.78;;;22.83;36.19
57574;BME280;68988;49.000;21.242;2023-05-01T05:39:02;99014.59;;;22.86;36.30
57574;BME280;68988;49.000;21.242;2023-05-01T05:41:27;99015.16;;;22.88;36.11
57574;BME280;68988;49.000;21.242;2023-05-01T05:43:53;99011.41;;;22.89;36.19
57574;BME280;68988;49.000;21.242;2023-05-01T05:46:18;99020.03;;;22.91;36.00
57574;BME280;68988;49.000;21.242;2023-05-01T05:48:44;99015.22;;;22.93;36.07
57574;BME280;68988;49.000;21.242;2023-05-01T05:51:09;99011.75;;;22.93;35.88
57574;BME280;68988;49.000;21.242;2023-05-01T05:53:34;99024.13;;;22.99;36.13
57574;BME280;68988;49.000;21.242;2023-05-01T05:56:00;99025.97;;;22.98;36.05
57574;BME280;68988;49.000;21.242;2023-05-01T05:58:26;99027.28;;;22.96;36.12
57574;BME280;68988;49.000;21.242;2023-05-01T06:00:51;99026.28;;;23.02;35.96
57574;BME280;68988;49.000;21.242;2023-05-01T06:03:22;99021.47;;;23.04;35.95
57574;BME280;68988;49.000;21.242;2023-05-01T06:05:48;99018.00;;;23.03;36.07
57574;BME280;68988;49.000;21.242;2023-05-01T06:08:13;99024.69;;;23.06;36.03
57574;BME280;68988;49.000;21.242;2023-05-01T06:10:42;99019.09;;;23.07;35.96
57574;BME280;68988;49.000;21.242;2023-05-01T06:13:08;99015.41;;;23.09;35.92
57574;BME280;68988;49.000;21.242;2023-05-01T06:15:37;99021.31;;;23.11;35.89
57574;BME280;68988;49.000;21.242;2023-05-01T06:18:02;99018.63;;;23.11;36.05
57574;BME280;68988;49.000;21.242;2023-05-01T06:20:28;99020.25;;;23.12;35.95
57574;BME280;68988;49.000;21.242;2023-05-01T06:22:54;99015.44;;;23.14;36.00
57574;BME280;68988;49.000;21.242;2023-05-01T06:25:20;99018.63;;;23.11;36.11
57574;BME280;68988;49.000;21.242;2023-05-01T06:27:45;99016.53;;;23.13;35.87
57574;BME280;68988;49.000;21.242;2023-05-01T06:30:10;99018.69;;;23.16;36.08
57574;BME280;68988;49.000;21.242;2023-05-01T06:32:36;99006.91;;;23.17;36.12
57574;BME280;68988;49.000;21.242;2023-05-01T06:35:01;99017.63;;;23.17;36.08
57574;BME280;68988;49.000;21.242;2023-05-01T06:37:27;99007.44;;;23.14;36.04
57574;BME280;68988;49.000;21.242;2023-05-01T06:39:52;99016.56;;;23.18;36.04
57574;BME280;68988;49.000;21.242;2023-05-01T06:42:17;99016.56;;;23.18;36.14
57574;BME280;68988;49.000;21.242;2023-05-01T06:44:45;99017.63;;;23.17;36.14
57574;BME280;68988;49.000;21.242;2023-05-01T06:47:10;99013.91;;;23.18;36.22
57574;BME280;68988;49.000;21.242;2023-05-01T06:49:36;99010.41;;;23.17;35.96
57574;BME280;68988;49.000;21.242;2023-05-01T06:52:01;99014.69;;;23.18;36.02
57574;BME280;68988;49.000;21.242;2023-05-01T06:54:27;99012.84;;;23.19;35.97
57574;BME280;68988;49.000;21.242;2023-05-01T06:56:52;99012.03;;;23.18;36.08
57574;BME280;68988;49.000;21.242;2023-05-01T06:59:18;99008.53;;;23.18;36.00
57574;BME280;68988;49.000;21.242;2023-05-01T07:01:43;99012.84;;;23.19;36.08
57574;BME280;68988;49.000;21.242;2023-05-01T07:04:09;99010.97;;;23.19;36.13
57574;BME280;68988;49.000;21.242;2023-05-01T07:06:35;99015.53;;;23.19;36.65
57574;BME280;68988;49.000;21.242;2023-05-01T07:09:00;99010.16;;;23.19;36.07
57574;BME280;68988;49.000;21.242;2023-05-01T07:11:25;99012.03;;;23.18;36.14
57574;BME280;68988;49.000;21.242;2023-05-01T07:13:53;99007.50;;;23.19;36.05
57574;BME280;68988;49.000;21.242;2023-05-01T07:16:18;99010.16;;;23.19;36.13
57574;BME280;68988;49.000;21.242;2023-05-01T07:18:44;99006.91;;;23.17;36.14
57574;BME280;68988;49.000;21.242;2023-05-01T07:21:10;99003.19;;;23.18;35.97
57574;BME280;68988;49.000;21.242;2023-05-01T07:23:36;99007.75;;;23.17;36.14
57574;BME280;68988;49.000;21.242;2023-05-01T07:26:02;99008.53;;;23.18;36.22
57574;BME280;68988;49.000;21.242;2023-05-01T07:28:28;99007.75;;;23.17;36.14
57574;BME280;68988;49.000;21.242;2023-05-01T07:30:53;99010.41;;;23.17;36.09
57574;BME280;68988;49.000;21.242;2023-05-01T07:33:19;99013.91;;;23.18;36.05
57574;BME280;68988;49.000;21.242;2023-05-01T07:35:44;99010.69;;;23.16;36.19
57574;BME280;68988;49.000;21.242;2023-05-01T07:38:10;99009.59;;;23.17;36.09
57574;BME280;68988;49.000;21.242;2023-05-01T07:40:36;99006.91;;;23.17;36.23
57574;BME280;68988;49.000;21.242;2023-05-01T07:43:02;99008.00;;;23.16;36.16
57574;BME280;68988;49.000;21.242;2023-05-01T07:45:28;99016.03;;;23.16;36.42
57574;BME280;68988;49.000;21.242;2023-05-01T07:47:53;99011.47;;;23.16;36.17
57574;BME280;68988;49.000;21.242;2023-05-01T07:50:19;99008.00;;;23.16;36.02
57574;BME280;68988;49.000;21.242;2023-05-01T07:52:44;99009.06;;;23.15;36.12
57574;BME280;68988;49.000;21.242;2023-05-01T07:55:10;99009.06;;;23.15;36.18
57574;BME280;68988;49.000;21.242;2023-05-01T07:57:36;99014.41;;;23.15;36.12
57574;BME280;68988;49.000;21.242;2023-05-01T08:00:01;99011.19;;;23.13;36.06
57574;BME280;68988;49.000;21.242;2023-05-01T08:02:27;99012.78;;;23.14;36.12
57574;BME280;68988;49.000;21.242;2023-05-01T08:04:52;99010.09;;;23.14;36.17
57574;BME280;68988;49.000;21.242;2023-05-01T08:07:18;99009.06;;;23.15;36.21
57574;BME280;68988;49.000;21.242;2023-05-01T08:09:45;99009.06;;;23.15;36.12
57574;BME280;68988;49.000;21.242;2023-05-01T08:12:10;99008.25;;;23.14;36.06
57574;BME280;68988;49.000;21.242;2023-05-01T08:14:35;99009.06;;;23.15;35.80
57574;BME280;68988;49.000;21.242;2023-05-01T08:17:01;99003.94;;;23.13;36.13
57574;BME280;68988;49.000;21.242;2023-05-01T08:19:26;99017.06;;;23.15;35.95
57574;BME280;68988;49.000;21.242;2023-05-01T08:21:52;99008.75;;;23.11;36.26
57574;BME280;68988;49.000;21.242;2023-05-01T08:24:18;99008.25;;;23.14;36.05
57574;BME280;68988;49.000;21.242;2023-05-01T08:26:43;99006.63;;;23.13;35.79
57574;BME280;68988;49.000;21.242;2023-05-01T08:29:09;99008.75;;;23.11;35.91
57574;BME280;68988;49.000;21.242;2023-05-01T08:31:34;99011.44;;;23.11;36.06
57574;BME280;68988;49.000;21.242;2023-05-01T08:34:02;99007.38;;;23.09;35.83
57574;BME280;68988;49.000;21.242;2023-05-01T08:36:27;99004.72;;;23.09;36.11
57574;BME280;68988;49.000;21.242;2023-05-01T08:38:53;98998.53;;;23.08;36.00
57574;BME280;68988;49.000;21.242;2023-05-01T08:41:21;98997.69;;;23.07;36.17
57574;BME280;68988;49.000;21.242;2023-05-01T08:43:48;98999.59;;;23.07;36.08
57574;BME280;68988;49.000;21.242;2023-05-01T08:46:39;98992.19;;;23.14;36.16
57574;BME280;68988;49.000;21.242;2023-05-01T08:49:06;98996.63;;;23.03;36.11
57574;BME280;68988;49.000;21.242;2023-05-01T08:51:33;99004.38;;;23.05;35.98
57574;BME280;68988;49.000;21.242;2023-05-01T08:54:02;98996.88;;;23.02;36.12
57574;BME280;68988;49.000;21.242;2023-05-01T08:56:29;98999.53;;;23.02;36.21
57574;BME280;68988;49.000;21.242;2023-05-01T08:58:57;98997.66;;;23.02;36.24
57574;BME280;68988;49.000;21.242;2023-05-01T09:01:23;99004.06;;;23.01;36.17
57574;BME280;68988;49.000;21.242;2023-05-01T09:03:50;98998.72;;;23.01;36.15
57574;BME280;68988;49.000;21.242;2023-05-01T09:06:17;98988.00;;;23.01;36.17
57574;BME280;68988;49.000;21.242;2023-05-01T09:08:43;98993.63;;;23.00;36.16
57574;BME280;68988;49.000;21.242;2023-05-01T09:11:10;98996.03;;;23.01;36.16
57574;BME280;68988;49.000;21.242;2023-05-01T09:13:36;98990.16;;;22.99;36.23
57574;BME280;68988;49.000;21.242;2023-05-01T09:16:03;98990.16;;;22.99;36.29
57574;BME280;68988;49.000;21.242;2023-05-01T09:18:29;98987.72;;;22.98;36.03
57574;BME280;68988;49.000;21.242;2023-05-01T09:20:56;98977.81;;;22.98;36.20
57574;BME280;68988;49.000;21.242;2023-05-01T09:23:21;98978.06;;;22.97;36.35
57574;BME280;68988;49.000;21.242;2023-05-01T09:25:47;98973.56;;;22.97;36.06
57574;BME280;68988;49.000;21.242;2023-05-01T09:28:12;98971.38;;;22.94;36.18
57574;BME280;68988;49.000;21.242;2023-05-01T09:30:38;98964.41;;;22.93;36.06
57574;BME280;68988;49.000;21.242;2023-05-01T09:33:08;98967.88;;;22.94;36.25
57574;BME280;68988;49.000;21.242;2023-05-01T09:35:53;98966.06;;;22.99;36.02
57574;BME280;68988;49.000;21.242;2023-05-01T09:38:24;98963.34;;;22.94;36.05
57574;BME280;68988;49.000;21.242;2023-05-01T09:40:50;98964.91;;;22.90;36.03
57574;BME280;68988;49.000;21.242;2023-05-01T09:43:24;98962.78;;;22.92;36.31
57574;BME280;68988;49.000;21.242;2023-05-01T09:48:25;98953.66;;;22.88;36.12
57574;BME280;68988;49.000;21.242;2023-05-01T09:50:50;98961.69;;;22.88;36.12
57574;BME280;68988;49.000;21.242;2023-05-01T09:53:16;98960.88;;;22.87;36.20
57574;BME280;68988;49.000;21.242;2023-05-01T09:55:41;98957.66;;;22.85;36.12
57574;BME280;68988;49.000;21.242;2023-05-01T09:58:07;98958.44;;;22.86;36.15
57574;BME280;68988;49.000;21.242;2023-05-01T10:00:46;98955.84;;;22.91;36.15
57574;BME280;68988;49.000;21.242;2023-05-01T10:03:13;98956.84;;;22.85;36.25
57574;BME280;68988;49.000;21.242;2023-05-01T10:05:42;98944.53;;;22.84;36.48
57574;BME280;68988;49.000;21.242;2023-05-01T10:08:08;98937.81;;;22.81;36.27
57574;BME280;68988;49.000;21.242;2023-05-01T10:10:42;98934.09;;;22.82;36.34
57574;BME280;68988;49.000;21.242;2023-05-01T10:13:15;98943.47;;;22.85;36.18
57574;BME280;68988;49.000;21.242;2023-05-01T10:15:41;98931.41;;;22.82;36.05
57574;BME280;68988;49.000;21.242;2023-05-01T10:18:10;98937.56;;;22.83;36.17
57574;BME280;68988;49.000;21.242;2023-05-01T10:20:36;98931.66;;;22.81;36.25
57574;BME280;68988;49.000;21.242;2023-05-01T10:23:01;98922.03;;;22.80;36.33
57574;BME280;68988;49.000;21.242;2023-05-01T10:25:30;98924.94;;;22.78;36.42
57574;BME280;68988;49.000;21.242;2023-05-01T10:27:56;98915.88;;;22.79;36.39
57574;BME280;68988;49.000;21.242;2023-05-01T10:30:24;98923.09;;;22.79;36.33
57574;BME280;68988;49.000;21.242;2023-05-01T10:32:50;98919.59;;;22.78;36.02
57574;BME280;68988;49.000;21.242;2023-05-01T10:35:36;98911.41;;;22.85;36.23
57574;BME280;68988;49.000;21.242;2023-05-01T10:38:10;98912.16;;;22.80;36.39
57574;BME280;68988;49.000;21.242;2023-05-01T10:43:28;98906.56;;;22.82;36.34
57574;BME280;68988;49.000;21.242;2023-05-01T10:53:39;98907.50;;;22.70;36.42
57574;BME280;68988;49.000;21.242;2023-05-01T10:59:03;98902.50;;;22.79;36.19
57574;BME280;68988;49.000;21.242;2023-05-01T11:01:40;98899.28;;;22.77;36.32
57574;BME280;68988;49.000;21.242;2023-05-01T11:09:42;98897.41;;;22.78;36.35
57574;BME280;68988;49.000;21.242;2023-05-01T11:12:10;98884.50;;;22.69;36.32
57574;BME280;68988;49.000;21.242;2023-05-01T11:22:57;98880.22;;;22.68;36.43
57574;BME280;68988;49.000;21.242;2023-05-01T11:25:28;98877.00;;;22.66;36.51
57574;BME280;68988;49.000;21.242;2023-05-01T11:28:00;98863.06;;;22.64;36.52
57574;BME280;68988;49.000;21.242;2023-05-01T11:30:35;98867.41;;;22.70;36.28
57574;BME280;68988;49.000;21.242;2023-05-01T11:33:01;98863.63;;;22.66;36.57
57574;BME280;68988;49.000;21.242;2023-05-01T11:35:28;98860.38;;;22.64;36.79
57574;BME280;68988;49.000;21.242;2023-05-01T11:37:54;98855.28;;;22.63;36.54
57574;BME280;68988;49.000;21.242;2023-05-01T11:42:49;98856.38;;;22.62;36.35
57574;BME280;68988;49.000;21.242;2023-05-01T11:45:15;98853.94;;;22.60;36.37
57574;BME280;68988;49.000;21.242;2023-05-01T11:47:41;98850.19;;;22.61;36.34
57574;BME280;68988;49.000;21.242;2023-05-01T11:50:08;98855.00;;;22.59;36.59
57574;BME280;68988;49.000;21.242;2023-05-01T11:52:41;98854.00;;;22.65;36.47
57574;BME280;68988;49.000;21.242;2023-05-01T11:55:07;98846.44;;;22.57;36.70
57574;BME280;68988;49.000;21.242;2023-05-01T11:57:53;98845.97;;;22.65;36.37
57574;BME280;68988;49.000;21.242;2023-05-01T12:03:02;98849.09;;;22.57;36.47
57574;BME280;68988;49.000;21.242;2023-05-01T12:05:29;98843.44;;;22.53;36.68
57574;BME280;68988;49.000;21.242;2023-05-01T12:08:16;98837.91;;;22.60;36.59
57574;BME280;68988;49.000;21.242;2023-05-01T12:10:47;98831.44;;;22.56;36.62
57574;BME280;68988;49.000;21.242;2023-05-01T12:13:13;98837.84;;;22.55;36.46
57574;BME280;68988;49.000;21.242;2023-05-01T12:15:42;98829.06;;;22.60;36.65
57574;BME280;68988;49.000;21.242;2023-05-01T12:18:08;98833.06;;;22.57;36.48
57574;BME280;68988;49.000;21.242;2023-05-01T12:20:41;98825.81;;;22.52;36.27
57574;BME280;68988;49.000;21.242;2023-05-01T12:23:09;98825.06;;;22.57;36.67
57574;BME280;68988;49.000;21.242;2023-05-01T12:25:36;98823.97;;;22.58;36.63
57574;BME280;68988;49.000;21.242;2023-05-01T12:28:06;98818.63;;;22.58;36.41
57574;BME280;68988;49.000;21.242;2023-05-01T12:30:32;98807.66;;;22.55;36.54
57574;BME280;68988;49.000;21.242;2023-05-01T12:32:58;98805.75;;;22.50;36.55
57574;BME280;68988;49.000;21.242;2023-05-01T12:35:30;98804.19;;;22.54;36.59
57574;BME280;68988;49.000;21.242;2023-05-01T12:37:56;98809.78;;;22.52;36.83
57574;BME280;68988;49.000;21.242;2023-05-01T12:40:22;98804.72;;;22.56;36.67
57574;BME280;68988;49.000;21.242;2023-05-01T12:42:57;98800.50;;;22.60;36.42
57574;BME280;68988;49.000;21.242;2023-05-01T12:45:23;98788.69;;;22.56;36.43
57574;BME280;68988;49.000;21.242;2023-05-01T12:47:49;98794.53;;;22.53;36.72
57574;BME280;68988;49.000;21.242;2023-05-01T12:50:15;98788.09;;;22.49;36.46
57574;BME280;68988;49.000;21.242;2023-05-01T12:52:40;98782.75;;;22.49;36.64
57574;BME280;68988;49.000;21.242;2023-05-01T12:55:06;98780.06;;;22.49;36.75
57574;BME280;68988;49.000;21.242;2023-05-01T12:57:33;98774.78;;;22.54;36.69
57574;BME280;68988;49.000;21.242;2023-05-01T13:00:00;98775.28;;;22.51;36.66
57574;BME280;68988;49.000;21.242;2023-05-01T13:02:30;98772.38;;;22.52;36.52
57574;BME280;68988;49.000;21.242;2023-05-01T13:05:10;98778.00;;;22.56;36.38
57574;BME280;68988;49.000;21.242;2023-05-01T13:07:36;98772.13;;;22.54;36.59
57574;BME280;68988;49.000;21.242;2023-05-01T13:10:03;98781.44;;;22.51;36.64
57574;BME280;68988;49.000;21.242;2023-05-01T13:12:30;98773.66;;;22.50;36.78
57574;BME280;68988;49.000;21.242;2023-05-01T13:14:57;98773.16;;;22.53;36.64
57574;BME280;68988;49.000;21.242;2023-05-01T13:17:30;98773.41;;;22.51;36.76
57574;BME280;68988;49.000;21.242;2023-05-01T13:20:00;98766.50;;;22.56;36.45
57574;BME280;68988;49.000;21.242;2023-05-01T13:24:54;98757.94;;;22.53;36.64
57574;BME280;68988;49.000;21.242;2023-05-01T13:27:21;98761.94;;;22.51;36.70
57574;BME280;68988;49.000;21.242;2023-05-01T13:29:55;98758.19;;;22.52;36.71
57574;BME280;68988;49.000;21.242;2023-05-01T13:32:22;98757.88;;;22.48;36.70
57574;BME280;68988;49.000;21.242;2023-05-01T13:34:48;98755.19;;;22.43;36.81
57574;BME280;68988;49.000;21.242;2023-05-01T13:37:14;98750.41;;;22.50;36.58
57574;BME280;68988;49.000;21.242;2023-05-01T13:39:44;98751.00;;;22.52;36.53
57574;BME280;68988;49.000;21.242;2023-05-01T13:42:11;98746.41;;;22.48;36.59
57574;BME280;68988;49.000;21.242;2023-05-01T13:44:47;98745.91;;;22.51;36.76